createdAt,value
2022-11-03T00:00:51.780Z,5.70
2022-11-03T00:01:53.528Z,5.70
2022-11-03T00:02:55.341Z,5.70
2022-11-03T00:03:57.120Z,5.70
2022-11-03T00:05:18.832Z,5.70
2022-11-03T00:06:20.506Z,5.70
2022-11-03T00:07:22.775Z,5.70
2022-11-03T00:08:24.583Z,5.70
2022-11-03T00:09:29.001Z,5.70
2022-11-03T00:10:31.332Z,5.70
2022-11-03T00:11:34.684Z,5.80
2022-11-03T00:12:36.335Z,5.80
2022-11-03T00:13:40.167Z,5.70
2022-11-03T00:14:41.964Z,5.80
2022-11-03T00:15:50.294Z,5.70
2022-11-03T00:16:51.993Z,5.70
2022-11-03T00:17:53.692Z,5.60
2022-11-03T00:18:55.847Z,5.70
2022-11-03T00:19:57.517Z,5.60
2022-11-03T00:21:07.960Z,5.60
2022-11-03T00:22:09.810Z,5.60
2022-11-03T00:23:11.518Z,5.60
2022-11-03T00:24:13.585Z,5.60
2022-11-03T00:25:15.377Z,5.70
2022-11-03T00:26:22.470Z,5.70
2022-11-03T00:27:24.217Z,5.70
2022-11-03T00:28:25.918Z,5.60
2022-11-03T00:29:27.639Z,5.60
2022-11-03T00:30:29.312Z,5.60
2022-11-03T00:31:34.071Z,5.60
2022-11-03T00:32:35.745Z,5.60
2022-11-03T00:33:38.894Z,5.50
2022-11-03T00:34:40.703Z,5.60
2022-11-03T00:35:42.416Z,5.60
2022-11-03T00:36:45.165Z,5.60
2022-11-03T00:37:46.889Z,5.60
2022-11-03T00:38:48.683Z,5.60
2022-11-03T00:39:50.395Z,5.60
2022-11-03T00:41:01.016Z,5.50
2022-11-03T00:42:02.768Z,5.50
2022-11-03T00:43:04.614Z,5.50
2022-11-03T00:44:06.651Z,5.50
2022-11-03T00:45:09.150Z,5.50
2022-11-03T00:46:10.918Z,5.50
2022-11-03T00:47:12.637Z,5.50
2022-11-03T00:48:30.039Z,5.50
2022-11-03T00:49:31.715Z,5.50
2022-11-03T00:50:34.139Z,5.50
2022-11-03T00:51:36.235Z,5.50
2022-11-03T00:52:37.967Z,5.50
2022-11-03T00:53:43.001Z,5.40
2022-11-03T00:54:45.558Z,5.40
2022-11-03T00:55:50.532Z,5.30
2022-11-03T00:56:52.269Z,5.40
2022-11-03T00:57:54.133Z,5.40
2022-11-03T00:58:57.806Z,5.30
2022-11-03T00:59:59.474Z,5.30
2022-11-03T01:01:07.585Z,5.30
2022-11-03T01:02:09.521Z,5.30
2022-11-03T01:03:11.222Z,5.30
2022-11-03T01:04:31.861Z,5.30
2022-11-03T01:05:52.354Z,5.30
2022-11-03T01:06:56.486Z,5.20
2022-11-03T01:09:04.795Z,5.20
2022-11-03T01:10:07.381Z,5.20
2022-11-03T01:11:37.845Z,5.20
2022-11-03T01:12:39.520Z,5.20
2022-11-03T01:13:41.194Z,5.10
2022-11-03T01:14:51.745Z,5.10
2022-11-03T01:15:58.492Z,5.10
2022-11-03T01:17:00.294Z,5.10
2022-11-03T01:18:02.156Z,5.00
2022-11-03T01:19:03.877Z,5.10
2022-11-03T01:20:06.029Z,5.10
2022-11-03T01:21:07.823Z,5.10
2022-11-03T01:22:11.295Z,5.10
2022-11-03T01:23:13.167Z,5.10
2022-11-03T01:24:14.911Z,5.10
2022-11-03T01:25:16.738Z,5.10
2022-11-03T01:26:18.515Z,5.10
2022-11-03T01:27:23.608Z,5.10
2022-11-03T01:28:25.782Z,5.00
2022-11-03T01:29:27.465Z,5.10
2022-11-03T01:30:29.196Z,5.00
2022-11-03T01:31:30.949Z,5.00
2022-11-03T01:32:32.665Z,5.00
2022-11-03T01:33:34.965Z,5.00
2022-11-03T01:34:36.907Z,5.00
2022-11-03T01:35:38.747Z,5.00
2022-11-03T01:36:40.459Z,4.90
2022-11-03T01:37:42.114Z,4.90
2022-11-03T01:38:44.544Z,4.90
2022-11-03T01:39:46.319Z,4.90
2022-11-03T01:40:48.047Z,5.00
2022-11-03T01:41:52.523Z,5.00
2022-11-03T01:42:54.198Z,5.00
2022-11-03T01:44:29.661Z,5.00
2022-11-03T01:45:31.373Z,5.00
2022-11-03T01:46:36.206Z,5.00
2022-11-03T01:47:38.004Z,5.00
2022-11-03T01:48:46.692Z,5.00
2022-11-03T01:50:05.885Z,5.00
2022-11-03T01:51:10.332Z,5.00
2022-11-03T01:52:18.229Z,5.00
2022-11-03T01:53:21.721Z,5.00
2022-11-03T01:54:26.027Z,5.00
2022-11-03T01:55:35.728Z,4.90
2022-11-03T01:56:42.206Z,4.90
2022-11-03T01:58:01.747Z,4.90
2022-11-03T01:59:04.164Z,4.90
2022-11-03T02:00:06.888Z,4.90
2022-11-03T02:01:08.855Z,4.90
2022-11-03T02:02:11.328Z,4.80
2022-11-03T02:03:14.002Z,4.80
2022-11-03T02:04:22.283Z,4.80
2022-11-03T02:05:26.569Z,4.80
2022-11-03T02:06:30.726Z,4.80
2022-11-03T02:07:46.501Z,4.90
2022-11-03T02:09:11.510Z,4.90
2022-11-03T02:10:13.505Z,4.80
2022-11-03T02:11:34.047Z,4.80
2022-11-03T02:12:36.969Z,4.80
2022-11-03T02:13:38.728Z,4.80
2022-11-03T02:14:46.293Z,4.80
2022-11-03T02:15:50.992Z,4.70
2022-11-03T02:17:03.958Z,4.70
2022-11-03T02:18:06.470Z,4.70
2022-11-03T02:19:19.929Z,4.70
2022-11-03T02:20:26.235Z,4.60
2022-11-03T02:21:47.677Z,4.60
2022-11-03T02:23:11.110Z,4.60
2022-11-03T02:24:31.805Z,4.50
2022-11-03T02:25:48.788Z,4.50
2022-11-03T02:26:55.288Z,4.50
2022-11-03T02:27:57.733Z,4.60
2022-11-03T02:28:59.509Z,4.50
2022-11-03T02:30:01.478Z,4.50
2022-11-03T02:31:34.198Z,4.50
2022-11-03T02:32:57.582Z,4.50
2022-11-03T02:34:17.685Z,4.50
2022-11-03T02:35:31.173Z,4.50
2022-11-03T02:36:45.307Z,4.50
2022-11-03T02:37:51.706Z,4.40
2022-11-03T02:39:02.155Z,4.40
2022-11-03T02:40:09.967Z,4.40
2022-11-03T02:41:14.627Z,4.40
2022-11-03T02:42:19.844Z,4.40
2022-11-03T02:43:23.879Z,4.40
2022-11-03T02:44:27.444Z,4.40
2022-11-03T02:45:30.339Z,4.50
2022-11-03T02:46:34.734Z,4.40
2022-11-03T02:47:38.060Z,4.40
2022-11-03T02:48:40.002Z,4.40
2022-11-03T02:51:02.962Z,4.40
2022-11-03T02:52:06.553Z,4.40
2022-11-03T02:53:12.547Z,4.40
2022-11-03T02:54:28.526Z,4.40
2022-11-03T02:55:39.386Z,4.40
2022-11-03T02:56:53.738Z,4.40
2022-11-03T02:58:00.592Z,4.40
2022-11-03T02:59:06.654Z,4.30
2022-11-03T03:00:09.421Z,4.30
2022-11-03T03:01:29.147Z,4.30
2022-11-03T03:02:38.885Z,4.30
2022-11-03T03:03:53.980Z,4.30
2022-11-03T03:04:59.359Z,4.30
2022-11-03T03:06:11.259Z,4.30
2022-11-03T03:07:34.137Z,4.30
2022-11-03T03:08:41.223Z,4.20
2022-11-03T03:10:14.608Z,4.20
2022-11-03T03:11:16.699Z,4.20
2022-11-03T03:12:20.910Z,4.20
2022-11-03T03:13:23.924Z,4.20
2022-11-03T03:14:30.112Z,4.10
2022-11-03T03:15:57.567Z,4.10
2022-11-03T03:17:01.870Z,4.20
2022-11-03T03:18:15.460Z,4.20
2022-11-03T03:19:19.881Z,4.20
2022-11-03T03:20:28.690Z,4.20
2022-11-03T03:21:37.566Z,4.20
2022-11-03T03:22:48.134Z,4.20
2022-11-03T03:24:01.103Z,4.20
2022-11-03T03:25:16.720Z,4.20
2022-11-03T03:26:25.043Z,4.10
2022-11-03T03:27:29.809Z,4.10
2022-11-03T03:28:43.775Z,4.10
2022-11-03T03:29:55.872Z,4.10
2022-11-03T03:31:00.690Z,4.10
2022-11-03T03:32:08.746Z,4.10
2022-11-03T03:33:12.771Z,4.10
2022-11-03T03:34:33.845Z,4.10
2022-11-03T03:35:40.256Z,4.10
2022-11-03T03:36:44.787Z,4.10
2022-11-03T03:37:51.056Z,4.00
2022-11-03T03:38:58.895Z,4.00
2022-11-03T03:40:07.398Z,4.00
2022-11-03T03:41:12.366Z,4.00
2022-11-03T03:42:15.891Z,4.00
2022-11-03T03:43:19.339Z,4.00
2022-11-03T03:44:21.553Z,4.10
2022-11-03T03:45:26.514Z,4.10
2022-11-03T03:46:41.041Z,4.10
2022-11-03T03:47:43.629Z,4.10
2022-11-03T03:48:45.336Z,4.10
2022-11-03T03:49:47.198Z,4.10
2022-11-03T03:50:49.950Z,4.10
2022-11-03T03:51:51.944Z,4.00
2022-11-03T03:53:05.788Z,4.00
2022-11-03T03:54:07.668Z,4.00
2022-11-03T03:55:17.285Z,4.00
2022-11-03T03:56:25.957Z,4.00
2022-11-03T03:57:30.328Z,4.00
2022-11-03T03:58:32.278Z,4.00
2022-11-03T03:59:34.527Z,4.00
2022-11-03T04:00:40.048Z,4.00
2022-11-03T04:01:41.891Z,4.00
2022-11-03T04:02:43.707Z,4.00
2022-11-03T04:03:45.395Z,4.10
2022-11-03T04:04:47.190Z,4.00
2022-11-03T04:05:49.081Z,4.00
2022-11-03T04:07:10.760Z,4.00
2022-11-03T04:08:13.790Z,4.00
2022-11-03T04:09:15.481Z,4.00
2022-11-03T04:10:19.427Z,4.00
2022-11-03T04:11:39.623Z,3.90
2022-11-03T04:13:01.656Z,3.90
2022-11-03T04:14:21.947Z,3.90
2022-11-03T04:16:01.658Z,3.90
2022-11-03T04:17:21.935Z,3.90
2022-11-03T04:18:42.491Z,3.90
2022-11-03T04:20:02.883Z,3.90
2022-11-03T04:21:24.042Z,3.90
2022-11-03T04:22:29.976Z,3.90
2022-11-03T04:23:31.735Z,3.90
2022-11-03T04:24:33.433Z,3.90
2022-11-03T04:25:35.225Z,3.90
2022-11-03T04:26:36.975Z,3.80
2022-11-03T04:27:41.029Z,3.80
2022-11-03T04:28:43.544Z,3.80
2022-11-03T04:29:45.293Z,3.80
2022-11-03T04:30:47.596Z,3.80
2022-11-03T04:31:49.338Z,3.80
2022-11-03T04:32:52.815Z,3.80
2022-11-03T04:33:54.515Z,3.80
2022-11-03T04:34:56.245Z,3.80
2022-11-03T04:35:59.450Z,3.80
2022-11-03T04:37:01.784Z,3.80
2022-11-03T04:38:15.307Z,3.80
2022-11-03T04:39:19.980Z,3.80
2022-11-03T04:40:21.768Z,3.80
2022-11-03T04:41:28.536Z,3.70
2022-11-03T04:42:32.988Z,3.70
2022-11-03T04:43:36.737Z,3.70
2022-11-03T04:44:38.466Z,3.70
2022-11-03T04:45:40.801Z,3.70
2022-11-03T04:46:44.708Z,3.70
2022-11-03T04:47:46.440Z,3.70
2022-11-03T04:48:48.142Z,3.70
2022-11-03T04:49:50.014Z,3.70
2022-11-03T04:50:58.249Z,3.70
2022-11-03T04:51:59.942Z,3.70
2022-11-03T04:53:01.651Z,3.70
2022-11-03T04:54:13.248Z,3.80
2022-11-03T04:55:16.754Z,3.80
2022-11-03T04:56:21.798Z,3.80
2022-11-03T04:57:27.313Z,3.80
2022-11-03T04:58:34.446Z,3.80
2022-11-03T04:59:36.178Z,3.70
2022-11-03T05:00:39.207Z,3.70
2022-11-03T05:01:42.568Z,3.70
2022-11-03T05:02:53.110Z,3.70
2022-11-03T05:03:57.820Z,3.70
2022-11-03T05:04:59.736Z,3.70
2022-11-03T05:06:30.963Z,3.70
2022-11-03T05:07:36.320Z,3.70
2022-11-03T05:08:38.119Z,3.70
2022-11-03T05:09:42.751Z,3.70
2022-11-03T05:10:45.958Z,3.60
2022-11-03T05:11:48.244Z,3.70
2022-11-03T05:12:51.090Z,3.70
2022-11-03T05:13:52.874Z,3.70
2022-11-03T05:14:58.251Z,3.70
2022-11-03T05:16:05.178Z,3.70
2022-11-03T05:17:28.077Z,3.60
2022-11-03T05:18:42.913Z,3.70
2022-11-03T05:19:44.768Z,3.70
2022-11-03T05:20:53.897Z,3.70
2022-11-03T05:21:58.184Z,3.80
2022-11-03T05:23:01.037Z,3.80
2022-11-03T05:24:08.619Z,3.80
2022-11-03T05:25:44.665Z,3.80
2022-11-03T05:26:46.912Z,3.80
2022-11-03T05:27:48.709Z,3.80
2022-11-03T05:28:59.961Z,3.80
2022-11-03T05:30:02.561Z,3.80
2022-11-03T05:31:26.275Z,3.80
2022-11-03T05:32:33.041Z,3.70
2022-11-03T05:33:35.856Z,3.70
2022-11-03T05:34:46.742Z,3.70
2022-11-03T05:35:49.010Z,3.70
2022-11-03T05:36:50.734Z,3.70
2022-11-03T05:37:52.498Z,3.60
2022-11-03T05:38:58.715Z,3.60
2022-11-03T05:40:22.127Z,3.60
2022-11-03T05:41:26.667Z,3.60
2022-11-03T05:42:31.510Z,3.60
2022-11-03T05:43:33.907Z,3.60
2022-11-03T05:44:39.632Z,3.40
2022-11-03T05:45:42.266Z,3.50
2022-11-03T05:46:44.017Z,3.50
2022-11-03T05:47:46.122Z,3.50
2022-11-03T05:48:49.469Z,3.50
2022-11-03T05:49:55.012Z,3.50
2022-11-03T05:51:00.242Z,3.50
2022-11-03T05:52:01.993Z,3.50
2022-11-03T05:53:27.557Z,3.50
2022-11-03T05:54:33.865Z,3.60
2022-11-03T05:55:37.260Z,3.60
2022-11-03T05:56:38.995Z,3.60
2022-11-03T05:57:40.874Z,3.60
2022-11-03T05:58:44.248Z,3.60
2022-11-03T05:59:49.667Z,3.60
2022-11-03T06:00:52.048Z,3.60
2022-11-03T06:01:55.540Z,3.70
2022-11-03T06:02:58.814Z,3.70
2022-11-03T06:04:21.468Z,3.70
2022-11-03T06:05:25.092Z,3.70
2022-11-03T06:06:34.273Z,3.70
2022-11-03T06:07:37.312Z,3.70
2022-11-03T06:08:41.693Z,3.70
2022-11-03T06:09:46.605Z,3.60
2022-11-03T06:10:54.073Z,3.60
2022-11-03T06:11:58.576Z,3.60
2022-11-03T06:13:04.228Z,3.70
2022-11-03T06:14:24.309Z,3.60
2022-11-03T06:15:35.084Z,3.60
2022-11-03T06:16:44.058Z,3.60
2022-11-03T06:17:45.793Z,3.50
2022-11-03T06:18:47.780Z,3.50
2022-11-03T06:19:52.434Z,3.50
2022-11-03T06:21:02.649Z,3.50
2022-11-03T06:22:36.571Z,3.50
2022-11-03T06:23:40.313Z,3.60
2022-11-03T06:24:42.333Z,3.60
2022-11-03T06:25:44.101Z,3.50
2022-11-03T06:26:47.628Z,3.60
2022-11-03T06:27:50.417Z,3.50
2022-11-03T06:28:53.036Z,3.60
2022-11-03T06:30:01.543Z,3.60
2022-11-03T06:31:06.375Z,3.60
2022-11-03T06:32:12.434Z,3.60
2022-11-03T06:33:21.344Z,3.60
2022-11-03T06:34:32.496Z,3.60
2022-11-03T06:35:35.345Z,3.60
2022-11-03T06:36:37.560Z,3.60
2022-11-03T06:37:39.377Z,3.60
2022-11-03T06:38:41.188Z,3.60
2022-11-03T06:39:42.910Z,3.60
2022-11-03T06:40:46.007Z,3.60
2022-11-03T06:41:47.718Z,3.60
2022-11-03T06:42:49.387Z,3.60
2022-11-03T06:43:52.097Z,3.60
2022-11-03T06:44:53.923Z,3.60
2022-11-03T06:46:01.017Z,3.60
2022-11-03T06:47:15.097Z,3.70
2022-11-03T06:48:24.900Z,3.60
2022-11-03T06:49:35.494Z,3.70
2022-11-03T06:50:42.263Z,3.60
2022-11-03T06:51:46.469Z,3.70
2022-11-03T06:53:59.730Z,3.70
2022-11-03T06:55:12.329Z,3.70
2022-11-03T06:56:22.174Z,3.70
2022-11-03T06:57:23.854Z,3.80
2022-11-03T06:58:30.129Z,3.80
2022-11-03T06:59:31.796Z,3.80
2022-11-03T07:00:41.088Z,3.80
2022-11-03T07:01:46.580Z,3.80
2022-11-03T07:03:10.382Z,3.80
2022-11-03T07:04:20.651Z,3.80
2022-11-03T07:05:27.616Z,3.90
2022-11-03T07:06:36.189Z,3.80
2022-11-03T07:07:38.271Z,3.90
2022-11-03T07:08:45.384Z,3.90
2022-11-03T07:09:47.089Z,3.90
2022-11-03T07:10:59.086Z,3.90
2022-11-03T07:12:00.949Z,3.90
2022-11-03T07:13:15.687Z,4.00
2022-11-03T07:14:27.598Z,4.00
2022-11-03T07:15:33.924Z,4.00
2022-11-03T07:16:41.419Z,4.10
2022-11-03T07:17:43.092Z,4.10
2022-11-03T07:18:45.222Z,4.10
2022-11-03T07:19:46.945Z,4.20
2022-11-03T07:20:49.406Z,4.20
2022-11-03T07:21:56.028Z,4.10
2022-11-03T07:23:01.392Z,4.20
2022-11-03T07:24:33.333Z,4.30
2022-11-03T07:25:35.330Z,4.30
2022-11-03T07:26:37.010Z,4.30
2022-11-03T07:27:40.221Z,4.30
2022-11-03T07:28:41.944Z,4.40
2022-11-03T07:29:44.656Z,4.40
2022-11-03T07:30:46.350Z,4.50
2022-11-03T07:31:49.602Z,4.50
2022-11-03T07:32:53.833Z,4.50
2022-11-03T07:33:58.275Z,4.60
2022-11-03T07:35:53.354Z,4.60
2022-11-03T07:36:57.965Z,4.70
2022-11-03T07:38:09.716Z,4.70
2022-11-03T07:39:16.419Z,4.70
2022-11-03T07:40:27.608Z,4.80
2022-11-03T07:41:34.336Z,4.80
2022-11-03T07:42:36.617Z,4.80
2022-11-03T07:43:38.937Z,4.90
2022-11-03T07:44:40.764Z,4.90
2022-11-03T07:45:51.410Z,5.00
2022-11-03T07:46:53.092Z,5.00
2022-11-03T07:47:54.781Z,5.00
2022-11-03T07:48:58.442Z,5.10
2022-11-03T07:50:00.186Z,5.10
2022-11-03T07:51:20.208Z,5.10
2022-11-03T07:52:26.665Z,5.20
2022-11-03T07:53:36.024Z,5.20
2022-11-03T07:54:37.831Z,5.20
2022-11-03T07:55:39.651Z,5.30
2022-11-03T07:57:06.145Z,5.30
2022-11-03T07:58:32.605Z,5.30
2022-11-03T07:59:39.040Z,5.40
2022-11-03T08:00:40.807Z,5.40
2022-11-03T08:01:49.933Z,5.40
2022-11-03T08:02:58.890Z,5.40
2022-11-03T08:04:05.254Z,5.50
2022-11-03T08:05:07.616Z,5.50
2022-11-03T08:06:10.256Z,5.60
2022-11-03T08:07:13.643Z,5.60
2022-11-03T08:08:15.313Z,5.60
2022-11-03T08:09:18.126Z,5.70
2022-11-03T08:10:21.768Z,5.70
2022-11-03T08:11:27.837Z,5.70
2022-11-03T08:12:31.210Z,5.80
2022-11-03T08:13:33.070Z,5.80
2022-11-03T08:14:35.383Z,5.80
2022-11-03T08:15:37.144Z,5.80
2022-11-03T08:16:39.185Z,5.90
2022-11-03T08:17:40.989Z,5.90
2022-11-03T08:18:42.761Z,5.90
2022-11-03T08:19:44.500Z,6.00
2022-11-03T08:20:46.379Z,6.00
2022-11-03T08:21:48.050Z,6.00
2022-11-03T08:23:04.959Z,6.00
2022-11-03T08:24:11.729Z,6.00
2022-11-03T08:25:13.521Z,6.10
2022-11-03T08:26:15.763Z,6.10
2022-11-03T08:27:17.446Z,6.10
2022-11-03T08:28:19.236Z,6.10
2022-11-03T08:29:21.389Z,6.10
2022-11-03T08:30:23.102Z,6.20
2022-11-03T08:31:24.806Z,6.20
2022-11-03T08:32:26.587Z,6.30
2022-11-03T08:34:35.492Z,6.30
2022-11-03T08:35:37.230Z,6.40
2022-11-03T08:36:38.970Z,6.40
2022-11-03T08:37:40.638Z,6.40
2022-11-03T08:38:42.439Z,6.50
2022-11-03T08:39:44.085Z,6.50
2022-11-03T08:40:45.952Z,6.60
2022-11-03T08:41:47.634Z,6.60
2022-11-03T08:42:50.347Z,6.60
2022-11-03T08:43:52.079Z,6.70
2022-11-03T08:44:53.774Z,6.70
2022-11-03T08:45:56.038Z,6.70
2022-11-03T08:46:57.727Z,6.80
2022-11-03T08:47:59.481Z,6.80
2022-11-03T08:49:01.249Z,6.90
2022-11-03T08:50:04.036Z,7.00
2022-11-03T08:51:05.918Z,6.90
2022-11-03T08:52:07.625Z,6.90
2022-11-03T08:53:09.348Z,7.00
2022-11-03T08:54:11.078Z,7.10
2022-11-03T08:55:12.785Z,7.10
2022-11-03T08:56:16.961Z,7.10
2022-11-03T08:57:20.812Z,7.20
2022-11-03T08:58:23.248Z,7.20
2022-11-03T08:59:24.996Z,7.20
2022-11-03T09:00:26.722Z,7.30
2022-11-03T09:01:28.514Z,7.30
2022-11-03T09:02:30.944Z,7.30
2022-11-03T09:03:32.751Z,7.40
2022-11-03T09:04:34.477Z,7.40
2022-11-03T09:05:36.518Z,7.40
2022-11-03T09:06:38.237Z,7.40
2022-11-03T09:10:28.433Z,7.50
2022-11-03T09:11:35.073Z,7.60
2022-11-03T09:12:37.494Z,7.60
2022-11-03T09:13:39.198Z,7.70
2022-11-03T09:14:40.890Z,7.60
2022-11-03T09:15:42.647Z,7.70
2022-11-03T09:16:44.445Z,7.70
2022-11-03T09:17:46.220Z,7.80
2022-11-03T09:18:47.946Z,7.80
2022-11-03T09:19:49.634Z,7.70
2022-11-03T09:20:51.430Z,7.90
2022-11-03T09:21:53.140Z,7.90
2022-11-03T09:22:54.914Z,7.90
2022-11-03T09:23:59.354Z,8.00
2022-11-03T09:25:01.387Z,8.00
2022-11-03T09:26:03.212Z,8.10
2022-11-03T09:27:05.029Z,8.10
2022-11-03T09:28:07.149Z,8.20
2022-11-03T09:29:09.053Z,8.20
2022-11-03T09:30:13.942Z,8.20
2022-11-03T09:31:16.572Z,8.30
2022-11-03T09:32:22.957Z,8.30
2022-11-03T09:33:25.293Z,8.40
2022-11-03T09:34:27.205Z,8.40
2022-11-03T09:35:28.957Z,8.50
2022-11-03T09:36:30.706Z,8.50
2022-11-03T09:37:32.373Z,8.50
2022-11-03T09:38:34.042Z,8.60
2022-11-03T09:39:35.870Z,8.70
2022-11-03T09:40:37.619Z,8.70
2022-11-03T09:41:58.094Z,8.70
2022-11-03T09:43:00.839Z,8.80
2022-11-03T09:44:02.734Z,8.80
2022-11-03T09:45:05.680Z,8.80
2022-11-03T09:46:07.642Z,8.90
2022-11-03T09:47:15.458Z,8.90
2022-11-03T09:48:17.237Z,9.00
2022-11-03T09:49:21.243Z,9.00
2022-11-03T09:50:23.060Z,9.10
2022-11-03T09:51:26.722Z,9.10
2022-11-03T09:52:28.583Z,9.10
2022-11-03T09:53:31.026Z,9.20
2022-11-03T09:54:32.857Z,9.20
2022-11-03T09:55:34.948Z,9.20
2022-11-03T09:56:37.474Z,9.20
2022-11-03T09:57:39.336Z,9.30
2022-11-03T09:58:41.633Z,9.30
2022-11-03T09:59:46.390Z,9.30
2022-11-03T10:00:48.236Z,9.40
2022-11-03T10:01:53.524Z,9.40
2022-11-03T10:02:56.435Z,9.40
2022-11-03T10:04:00.638Z,9.50
2022-11-03T10:05:06.966Z,9.50
2022-11-03T10:06:15.193Z,9.50
2022-11-03T10:07:17.053Z,9.60
2022-11-03T10:08:26.642Z,9.60
2022-11-03T10:09:29.464Z,9.60
2022-11-03T10:10:32.489Z,9.70
2022-11-03T10:11:35.542Z,9.70
2022-11-03T10:12:38.109Z,9.70
2022-11-03T10:13:43.613Z,9.70
2022-11-03T10:14:46.539Z,9.80
2022-11-03T10:15:48.458Z,9.70
2022-11-03T10:16:57.535Z,9.80
2022-11-03T10:17:59.382Z,9.80
2022-11-03T10:19:01.177Z,9.80
2022-11-03T10:20:02.973Z,9.80
2022-11-03T10:21:15.425Z,9.90
2022-11-03T10:22:17.932Z,9.90
2022-11-03T10:23:19.704Z,10.00
2022-11-03T10:24:22.131Z,9.90
2022-11-03T10:25:41.456Z,9.90
2022-11-03T10:26:52.269Z,10.00
2022-11-03T10:28:20.300Z,10.00
2022-11-03T10:29:27.182Z,10.00
2022-11-03T10:30:32.444Z,10.10
2022-11-03T10:31:39.928Z,10.10
2022-11-03T10:32:41.657Z,10.10
2022-11-03T10:33:55.194Z,10.20
2022-11-03T10:34:56.923Z,10.20
2022-11-03T10:36:00.232Z,10.30
2022-11-03T10:37:24.733Z,10.30
2022-11-03T10:38:28.250Z,10.30
2022-11-03T10:39:30.791Z,10.40
2022-11-03T10:40:52.257Z,10.40
2022-11-03T10:41:59.345Z,10.40
2022-11-03T10:43:01.243Z,10.40
2022-11-03T10:44:12.096Z,10.50
2022-11-03T10:45:19.732Z,10.50
2022-11-03T10:46:48.512Z,10.50
2022-11-03T10:47:44.707Z,10.60
2022-11-03T10:49:01.545Z,10.60
2022-11-03T10:50:23.489Z,10.60
2022-11-03T10:51:25.183Z,10.60
2022-11-03T10:52:31.817Z,10.60
2022-11-03T10:53:33.651Z,10.60
2022-11-03T10:54:36.242Z,10.70
2022-11-03T10:56:41.964Z,10.70
2022-11-03T10:57:45.495Z,10.70
2022-11-03T10:58:48.536Z,10.70
2022-11-03T10:59:51.928Z,10.70
2022-11-03T11:00:53.707Z,10.80
2022-11-03T11:01:55.587Z,10.80
2022-11-03T11:03:00.190Z,10.80
2022-11-03T11:04:04.295Z,10.80
2022-11-03T11:05:19.433Z,10.80
2022-11-03T11:06:29.662Z,10.90
2022-11-03T11:07:54.107Z,10.90
2022-11-03T11:09:01.759Z,10.90
2022-11-03T11:10:19.719Z,11.00
2022-11-03T11:11:22.368Z,11.00
2022-11-03T11:12:25.719Z,11.00
2022-11-03T11:13:28.524Z,11.00
2022-11-03T11:14:30.242Z,11.00
2022-11-03T11:15:39.661Z,11.10
2022-11-03T11:16:51.619Z,11.10
2022-11-03T11:17:53.324Z,11.10
2022-11-03T11:18:54.954Z,11.10
2022-11-03T11:20:21.425Z,11.10
2022-11-03T11:21:25.084Z,11.10
2022-11-03T11:22:26.860Z,11.10
2022-11-03T11:23:31.509Z,11.20
2022-11-03T11:24:45.393Z,11.20
2022-11-03T11:26:25.131Z,11.20
2022-11-03T11:27:32.463Z,11.20
2022-11-03T11:28:34.709Z,11.20
2022-11-03T11:29:36.422Z,11.20
2022-11-03T11:30:38.047Z,11.30
2022-11-03T11:31:43.856Z,11.30
2022-11-03T11:32:45.504Z,11.30
2022-11-03T11:33:47.292Z,11.30
2022-11-03T11:34:49.044Z,11.30
2022-11-03T11:35:52.999Z,11.40
2022-11-03T11:36:58.191Z,11.40
2022-11-03T11:38:38.774Z,11.40
2022-11-03T11:39:44.365Z,11.50
2022-11-03T11:40:52.157Z,11.50
2022-11-03T11:42:14.570Z,11.50
2022-11-03T11:43:19.592Z,11.50
2022-11-03T11:44:39.627Z,11.60
2022-11-03T11:46:18.860Z,11.60
2022-11-03T11:47:32.452Z,11.60
2022-11-03T11:48:34.820Z,11.60
2022-11-03T11:49:36.593Z,11.70
2022-11-03T11:50:38.439Z,11.70
2022-11-03T11:51:40.250Z,11.70
2022-11-03T11:52:45.081Z,11.70
2022-11-03T11:53:58.731Z,11.70
2022-11-03T11:55:34.214Z,11.70
2022-11-03T11:56:43.271Z,11.70
2022-11-03T11:57:45.586Z,11.70
2022-11-03T11:58:56.993Z,11.70
2022-11-03T11:59:59.546Z,11.80
2022-11-03T12:01:05.073Z,11.80
2022-11-03T12:02:19.660Z,11.80
2022-11-03T12:03:32.969Z,11.80
2022-11-03T12:04:34.810Z,11.80
2022-11-03T12:05:36.577Z,11.80
2022-11-03T12:06:40.261Z,11.80
2022-11-03T12:07:41.970Z,11.80
2022-11-03T12:08:44.236Z,11.80
2022-11-03T12:09:46.173Z,11.80
2022-11-03T12:10:56.431Z,11.80
2022-11-03T12:12:06.869Z,11.80
2022-11-03T12:13:35.934Z,11.80
2022-11-03T12:14:39.515Z,11.70
2022-11-03T12:15:57.461Z,11.80
2022-11-03T12:17:17.501Z,11.70
2022-11-03T12:18:40.957Z,11.70
2022-11-03T12:19:50.471Z,11.70
2022-11-03T12:20:52.132Z,11.80
2022-11-03T12:21:53.949Z,11.80
2022-11-03T12:22:55.752Z,11.80
2022-11-03T12:23:57.421Z,11.80
2022-11-03T12:25:26.220Z,11.80
2022-11-03T12:26:27.939Z,11.80
2022-11-03T12:27:29.592Z,11.80
2022-11-03T12:28:36.260Z,11.80
2022-11-03T12:29:38.013Z,11.80
2022-11-03T12:30:40.331Z,11.80
2022-11-03T12:31:42.136Z,11.80
2022-11-03T12:32:43.925Z,11.80
2022-11-03T12:33:45.618Z,11.80
2022-11-03T12:34:47.764Z,11.90
2022-11-03T12:35:49.472Z,11.90
2022-11-03T12:36:55.955Z,11.90
2022-11-03T12:37:58.120Z,11.90
2022-11-03T12:38:59.807Z,11.90
2022-11-03T12:40:01.588Z,11.90
2022-11-03T12:41:22.191Z,11.90
2022-11-03T12:42:25.302Z,11.90
2022-11-03T12:43:27.267Z,11.90
2022-11-03T12:44:29.101Z,12.00
2022-11-03T12:45:30.891Z,11.90
2022-11-03T12:46:34.721Z,12.00
2022-11-03T12:47:36.459Z,12.00
2022-11-03T12:48:38.255Z,12.00
2022-11-03T12:49:39.974Z,12.00
2022-11-03T12:50:42.072Z,12.00
2022-11-03T12:51:43.739Z,12.00
2022-11-03T12:52:45.459Z,12.00
2022-11-03T12:53:47.513Z,12.00
2022-11-03T12:54:49.192Z,12.00
2022-11-03T12:55:50.882Z,12.00
2022-11-03T12:56:53.216Z,12.00
2022-11-03T12:57:54.884Z,12.00
2022-11-03T12:58:56.595Z,12.00
2022-11-03T12:59:58.332Z,12.00
2022-11-03T13:01:01.948Z,12.00
2022-11-03T13:02:04.405Z,12.00
2022-11-03T13:03:06.590Z,12.00
2022-11-03T13:04:09.142Z,12.10
2022-11-03T13:05:15.188Z,12.00
2022-11-03T13:06:17.021Z,12.10
2022-11-03T13:07:24.986Z,12.10
2022-11-03T13:08:29.547Z,12.10
2022-11-03T13:09:31.305Z,12.10
2022-11-03T13:10:33.047Z,12.10
2022-11-03T13:11:53.478Z,12.10
2022-11-03T13:12:55.154Z,12.10
2022-11-03T13:13:57.217Z,12.10
2022-11-03T13:15:00.620Z,12.10
2022-11-03T13:16:02.520Z,12.10
2022-11-03T13:17:04.555Z,12.10
2022-11-03T13:18:13.285Z,12.10
2022-11-03T13:19:15.988Z,12.10
2022-11-03T13:20:18.455Z,12.10
2022-11-03T13:21:20.194Z,12.10
2022-11-03T13:22:22.249Z,12.10
2022-11-03T13:23:23.933Z,12.10
2022-11-03T13:24:25.605Z,12.10
2022-11-03T13:25:28.621Z,12.10
2022-11-03T13:26:30.338Z,12.10
2022-11-03T13:27:32.335Z,12.10
2022-11-03T13:28:34.044Z,12.10
2022-11-03T13:29:36.277Z,12.10
2022-11-03T13:30:37.959Z,12.20
2022-11-03T13:31:39.759Z,12.20
2022-11-03T13:32:41.702Z,12.10
2022-11-03T13:33:43.425Z,12.20
2022-11-03T13:34:45.163Z,12.20
2022-11-03T13:35:46.950Z,12.20
2022-11-03T13:36:48.728Z,12.20
2022-11-03T13:37:50.449Z,12.20
2022-11-03T13:38:52.476Z,12.20
2022-11-03T13:39:54.168Z,12.30
2022-11-03T13:40:57.246Z,12.30
2022-11-03T13:41:59.727Z,12.30
2022-11-03T13:43:01.563Z,12.30
2022-11-03T13:44:03.275Z,12.30
2022-11-03T13:45:05.905Z,12.30
2022-11-03T13:46:07.618Z,12.30
2022-11-03T13:47:11.724Z,12.40
2022-11-03T13:50:07.832Z,12.40
2022-11-03T13:50:57.604Z,12.40
2022-11-03T13:51:59.405Z,12.40
2022-11-03T13:55:45.020Z,12.40
2022-11-03T13:59:30.261Z,12.40
2022-11-03T14:00:32.630Z,12.40
2022-11-03T14:01:34.575Z,12.40
2022-11-03T14:05:20.039Z,12.30
2022-11-03T14:06:21.759Z,12.30
2022-11-03T14:07:23.434Z,12.30
2022-11-03T14:08:25.189Z,12.30
2022-11-03T14:09:26.966Z,12.30
2022-11-03T14:10:28.712Z,12.30
2022-11-03T14:11:49.126Z,12.30
2022-11-03T14:12:50.791Z,12.30
2022-11-03T14:13:52.617Z,12.30
2022-11-03T14:14:54.294Z,12.30
2022-11-03T14:15:56.571Z,12.30
2022-11-03T14:16:58.326Z,12.20
2022-11-03T14:18:00.096Z,12.20
2022-11-03T14:19:01.790Z,12.20
2022-11-03T14:20:05.222Z,12.20
2022-11-03T14:21:07.178Z,12.20
2022-11-03T14:22:08.906Z,12.20
2022-11-03T14:23:10.702Z,12.20
2022-11-03T14:24:12.626Z,12.20
2022-11-03T14:25:14.377Z,12.20
2022-11-03T14:26:32.873Z,12.20
2022-11-03T14:27:37.769Z,12.20
2022-11-03T14:28:39.538Z,12.20
2022-11-03T14:29:41.949Z,12.20
2022-11-03T14:30:43.776Z,12.10
2022-11-03T14:31:45.427Z,12.10
2022-11-03T14:32:47.297Z,12.10
2022-11-03T14:33:48.979Z,12.10
2022-11-03T14:34:50.796Z,12.10
2022-11-03T14:35:52.782Z,12.00
2022-11-03T14:36:54.541Z,12.00
2022-11-03T14:37:56.265Z,12.00
2022-11-03T14:38:58.039Z,12.00
2022-11-03T14:39:59.734Z,12.00
2022-11-03T14:41:20.033Z,12.00
2022-11-03T14:42:21.760Z,11.90
2022-11-03T14:43:23.436Z,11.90
2022-11-03T14:44:25.148Z,12.00
2022-11-03T14:45:26.897Z,12.00
2022-11-03T14:46:29.082Z,12.00